الصفحة الرئيسية
METAR-TAF:

METAR-TAF

مطار :

مطار كانجرلوسواك

Kangerlussuaq, جرينلاند

دائرة عرض: 67-01N, خط طول: 050-42W, ارتفاع: 50 متر

مراقبة الطقس الحالي

تاريخ ووقت الإصدار 14 دقيقة قبل الساعة 17:50UTC
ريح 7 عقدة من الشرق/الشمال الشرقي
درجة الحرارة 10°درجة مئوية
الرطوبة 76%
ضغط 999 hPa
الرؤية 10 كم أو أكثر

METAR: BGSF 161750Z AUTO 06007KT 9999NDV FEW023/// OVC027/// 10/06 Q0999

زمن: 16:04 (18:04 UTC)

توقعات

تاريخ ووقت الإصدار 1ساعة و 14 دقيقة قبل الساعة 16:50UTC
التوقعات صالحة من16 الساعة 18 UTC إلى 17 الساعة 24 UTC
ريح 7 عقدة من الشرق/الشمال الشرقي
الرؤية 10 كم أو أكثر
غيوم مفككة على ارتفاع 3000 قدم
أصبح
من 17 الساعة 01 UTC إلى 17 الساعة 03 UTC
غيوم متفرقة على ارتفاع 800 قدم
غيوم مفككة على ارتفاع 1200 قدم
مؤقت
من 17 الساعة 03 UTC إلى 17 الساعة 13 UTC
الرؤية: 4000 متر
غيوم مفككة على ارتفاع 800 قدم
مطر
أصبح
من 17 الساعة 13 UTC إلى 17 الساعة 15 UTC
غيوم مفككة على ارتفاع 4000 قدم

TAF: BGSF 161650Z 1618/1724 07007KT 9999 BKN030 BECMG 1701/1703 SCT008 BKN012 TEMPO 1703/1713 4000 RA BKN008 BECMG 1713/1715 BKN040

أرصاد الطقس والتوقعات من أكثر من 4000 مطار (تقارير الطقس للمطار METAR والتنبؤ بالطقس بالمطارTAF).

المحطات المتاحة هي النقط الصفراء والحمراء على الخريطة.

حرك المؤشر فوق النقطة لمعرفة اسم المحطة.

ثم انقر لمعرفة أرصاد وتوقعات الطقس.

لتغيير الخارطة: اضغط على الأزرار الخضراء مع رمز الصليب الأسود للتكبير. على الزر الأخضر مع شرطة للتصغير، أو على الأسهم الخضراء للخرائط المجاورة.


METAR-TAF: